createdAt,value
2023-10-01T00:00:44.644Z,9.82
2023-10-01T00:03:11.786Z,9.95
2023-10-01T00:05:41.340Z,10.65
2023-10-01T00:08:09.792Z,9.68
2023-10-01T00:10:36.494Z,9.70
2023-10-01T00:13:03.240Z,9.75
2023-10-01T00:15:31.553Z,9.68
2023-10-01T00:17:58.214Z,9.68
2023-10-01T00:20:27.480Z,11.82
2023-10-01T00:23:02.012Z,12.43
2023-10-01T00:25:29.723Z,11.55
2023-10-01T00:27:59.564Z,9.30
2023-10-01T00:30:32.316Z,11.67
2023-10-01T00:33:00.611Z,14.70
2023-10-01T00:35:27.307Z,11.68
2023-10-01T00:37:54.479Z,12.25
2023-10-01T00:40:21.363Z,11.10
2023-10-01T00:42:48.158Z,11.00
2023-10-01T00:45:15.606Z,10.00
2023-10-01T00:47:44.847Z,10.68
2023-10-01T00:50:16.949Z,11.45
2023-10-01T00:52:45.491Z,9.35
2023-10-01T00:55:14.777Z,9.18
2023-10-01T00:57:42.286Z,10.55
2023-10-01T01:00:10.938Z,11.55
2023-10-01T01:02:47.188Z,13.52
2023-10-01T01:05:24.863Z,10.10
2023-10-01T01:07:51.660Z,9.18
2023-10-01T01:10:20.625Z,9.15
2023-10-01T01:12:55.389Z,10.45
2023-10-01T01:15:22.659Z,11.48
2023-10-01T01:17:52.421Z,10.63
2023-10-01T01:20:20.741Z,11.00
2023-10-01T01:22:51.210Z,10.75
2023-10-01T01:25:21.665Z,10.82
2023-10-01T01:27:49.527Z,10.35
2023-10-01T01:30:18.494Z,11.25
2023-10-01T01:32:46.399Z,9.93
2023-10-01T01:35:13.011Z,9.15
2023-10-01T01:37:48.765Z,9.48
2023-10-01T01:40:26.233Z,9.32
2023-10-01T01:42:57.303Z,8.55
2023-10-01T01:45:29.543Z,11.10
2023-10-01T01:47:56.293Z,9.77
2023-10-01T01:50:27.810Z,10.25
2023-10-01T01:52:57.637Z,9.93
2023-10-01T01:55:29.107Z,11.20
2023-10-01T01:58:09.823Z,9.80
2023-10-01T02:00:39.039Z,10.32
2023-10-01T02:03:12.116Z,10.45
2023-10-01T02:05:42.459Z,10.27
2023-10-01T02:08:24.903Z,10.93
2023-10-01T02:10:52.697Z,10.55
2023-10-01T02:13:19.415Z,10.02
2023-10-01T02:15:50.485Z,10.88
2023-10-01T02:18:21.245Z,10.10
2023-10-01T02:20:57.632Z,10.13
2023-10-01T02:23:33.552Z,11.95
2023-10-01T02:26:01.805Z,10.30
2023-10-01T02:28:33.993Z,9.65
2023-10-01T02:31:07.819Z,11.65
2023-10-01T02:33:53.216Z,11.10
2023-10-01T02:36:24.039Z,10.93
2023-10-01T02:41:26.335Z,10.52
2023-10-01T02:43:54.054Z,10.25
2023-10-01T02:46:29.899Z,10.38
2023-10-01T02:49:01.076Z,12.25
2023-10-01T02:51:38.244Z,10.10
2023-10-01T02:54:12.394Z,11.00
2023-10-01T02:56:53.641Z,10.50
2023-10-01T02:59:23.997Z,9.75
2023-10-01T03:01:50.829Z,11.57
2023-10-01T03:04:18.334Z,10.60
2023-10-01T03:06:55.953Z,11.27
2023-10-01T03:09:29.680Z,10.25
2023-10-01T03:12:16.222Z,10.35
2023-10-01T03:14:44.880Z,10.98
2023-10-01T03:17:18.637Z,10.73
2023-10-01T03:19:53.601Z,10.20
2023-10-01T03:22:32.927Z,11.02
2023-10-01T03:25:14.086Z,11.05
2023-10-01T03:27:40.804Z,10.55
2023-10-01T03:30:21.874Z,10.18
2023-10-01T03:32:48.668Z,10.38
2023-10-01T03:35:15.315Z,10.10
2023-10-01T03:37:44.497Z,9.80
2023-10-01T03:40:20.053Z,10.65
2023-10-01T03:42:52.000Z,10.90
2023-10-01T03:45:27.204Z,12.27
2023-10-01T03:48:07.227Z,10.10
2023-10-01T03:50:46.003Z,10.83
2023-10-01T03:53:12.793Z,9.82
2023-10-01T03:55:41.211Z,11.23
2023-10-01T03:58:19.299Z,11.68
2023-10-01T04:00:54.596Z,11.48
2023-10-01T04:03:22.366Z,12.98
2023-10-01T04:05:57.680Z,12.70
2023-10-01T04:08:24.636Z,13.60
2023-10-01T04:10:59.598Z,12.70
2023-10-01T04:13:29.027Z,11.30
2023-10-01T04:15:59.009Z,11.73
2023-10-01T04:18:30.234Z,11.37
2023-10-01T04:20:59.236Z,10.75
2023-10-01T04:23:31.472Z,11.13
2023-10-01T04:26:01.515Z,14.25
2023-10-01T04:28:28.296Z,15.33
2023-10-01T04:30:57.844Z,16.40
2023-10-01T04:33:24.725Z,15.35
2023-10-01T04:35:59.591Z,15.63
2023-10-01T04:38:30.198Z,13.88
2023-10-01T04:40:58.546Z,12.20
2023-10-01T04:43:27.383Z,11.00
2023-10-01T04:45:54.381Z,10.27
2023-10-01T04:48:23.460Z,10.18
2023-10-01T04:50:55.315Z,9.20
2023-10-01T04:53:26.322Z,10.60
2023-10-01T04:56:07.269Z,10.13
2023-10-01T05:01:12.231Z,10.68
2023-10-01T05:03:40.283Z,10.35
2023-10-01T05:06:15.629Z,10.80
2023-10-01T05:08:43.528Z,10.43
2023-10-01T05:11:17.583Z,10.73
2023-10-01T05:13:48.988Z,11.48
2023-10-01T05:16:19.946Z,10.75
2023-10-01T05:18:47.254Z,11.88
2023-10-01T05:21:14.737Z,10.73
2023-10-01T05:23:42.828Z,10.40
2023-10-01T05:26:10.324Z,11.13
2023-10-01T05:28:37.763Z,10.48
2023-10-01T05:31:09.820Z,10.05
2023-10-01T05:33:36.753Z,10.98
2023-10-01T05:36:07.382Z,9.52
2023-10-01T05:38:35.638Z,10.52
2023-10-01T05:41:10.482Z,10.93
2023-10-01T05:43:44.900Z,12.82
2023-10-01T05:46:12.252Z,11.45
2023-10-01T05:48:40.710Z,12.00
2023-10-01T05:51:21.174Z,11.90
2023-10-01T05:53:49.740Z,12.18
2023-10-01T05:56:18.368Z,11.85
2023-10-01T05:58:45.225Z,11.98
2023-10-01T06:01:16.084Z,12.55
2023-10-01T06:03:49.732Z,12.65
2023-10-01T06:06:25.742Z,12.32
2023-10-01T06:09:00.803Z,12.88
2023-10-01T06:11:48.650Z,10.65
2023-10-01T06:14:35.300Z,11.35
2023-10-01T06:17:02.346Z,11.98
2023-10-01T06:19:33.316Z,11.60
2023-10-01T06:22:13.636Z,13.98
2023-10-01T06:24:44.321Z,13.60
2023-10-01T06:27:19.027Z,13.95
2023-10-01T06:29:52.249Z,12.35
2023-10-01T06:32:24.441Z,11.52
2023-10-01T06:34:54.843Z,12.07
2023-10-01T06:37:21.840Z,11.48
2023-10-01T06:39:49.063Z,12.38
2023-10-01T06:42:19.617Z,13.65
2023-10-01T06:47:23.929Z,11.50
2023-10-01T06:50:07.048Z,13.70
2023-10-01T06:52:36.986Z,13.05
2023-10-01T06:55:04.843Z,12.75
2023-10-01T06:57:34.252Z,13.93
2023-10-01T07:00:01.801Z,12.52
2023-10-01T07:02:29.256Z,12.18
2023-10-01T07:05:13.179Z,14.40
2023-10-01T07:07:41.913Z,13.00
2023-10-01T07:10:12.017Z,13.40
2023-10-01T07:12:39.764Z,13.00
2023-10-01T07:15:07.501Z,16.23
2023-10-01T07:17:36.314Z,15.57
2023-10-01T07:20:19.350Z,17.48
2023-10-01T07:22:46.081Z,20.33
2023-10-01T07:25:39.625Z,17.67
2023-10-01T07:28:14.293Z,18.40
2023-10-01T07:30:47.005Z,16.08
2023-10-01T07:33:23.758Z,16.25
2023-10-01T07:36:01.342Z,15.80
2023-10-01T07:38:30.280Z,14.77
2023-10-01T07:41:00.248Z,14.27
2023-10-01T07:43:28.909Z,14.82
2023-10-01T07:46:15.601Z,14.27
2023-10-01T07:48:48.902Z,15.52
2023-10-01T07:51:27.206Z,14.27
2023-10-01T07:53:54.963Z,15.25
2023-10-01T07:56:24.977Z,14.80
2023-10-01T07:59:12.613Z,14.47
2023-10-01T08:01:43.703Z,15.35
2023-10-01T08:04:33.821Z,16.63
2023-10-01T08:07:16.621Z,14.38
2023-10-01T08:09:47.882Z,16.70
2023-10-01T08:12:15.126Z,16.50
2023-10-01T08:14:41.860Z,14.88
2023-10-01T08:17:09.587Z,14.10
2023-10-01T08:19:45.977Z,12.07
2023-10-01T08:22:16.745Z,12.63
2023-10-01T08:24:50.253Z,13.23
2023-10-01T08:27:35.970Z,11.95
2023-10-01T08:30:20.808Z,13.75
2023-10-01T08:33:13.540Z,13.90
2023-10-01T08:35:40.139Z,13.32
2023-10-01T08:38:16.565Z,13.00
2023-10-01T08:40:43.995Z,12.40
2023-10-01T08:43:17.708Z,12.13
2023-10-01T08:45:45.148Z,12.25
2023-10-01T08:48:18.892Z,13.90
2023-10-01T08:50:46.852Z,14.98
2023-10-01T08:53:14.617Z,13.77
2023-10-01T08:55:48.602Z,13.95
2023-10-01T08:58:26.441Z,14.73
2023-10-01T09:01:11.456Z,14.80
2023-10-01T09:03:39.531Z,14.10
2023-10-01T09:06:09.720Z,15.27
2023-10-01T09:08:44.285Z,14.88
2023-10-01T09:11:15.610Z,13.60
2023-10-01T09:13:46.833Z,15.43
2023-10-01T09:16:14.565Z,14.68
2023-10-01T09:19:23.192Z,13.45
2023-10-01T09:21:50.710Z,13.73
2023-10-01T09:24:41.018Z,14.55
2023-10-01T09:27:20.665Z,13.13
2023-10-01T09:29:50.070Z,14.63
2023-10-01T09:32:20.846Z,13.95
2023-10-01T09:34:59.404Z,15.55
2023-10-01T09:37:35.144Z,12.00
2023-10-01T09:40:06.845Z,14.57
2023-10-01T09:42:45.715Z,14.82
2023-10-01T09:45:27.371Z,14.43
2023-10-01T09:48:10.695Z,15.65
2023-10-01T09:50:45.456Z,13.93
2023-10-01T09:53:13.562Z,13.88
2023-10-01T09:55:50.486Z,12.95
2023-10-01T09:58:29.254Z,12.35
2023-10-01T10:01:02.597Z,12.63
2023-10-01T10:03:37.486Z,12.10
2023-10-01T10:06:09.086Z,12.50
2023-10-01T10:08:37.147Z,13.35
2023-10-01T10:11:07.426Z,13.52
2023-10-01T10:13:58.812Z,14.15
2023-10-01T10:16:32.384Z,15.65
2023-10-01T10:19:24.698Z,15.55
2023-10-01T10:22:03.905Z,15.20
2023-10-01T10:24:36.364Z,14.00
2023-10-01T10:27:10.901Z,14.57
2023-10-01T10:29:59.989Z,15.55
2023-10-01T10:32:32.076Z,12.10
2023-10-01T10:35:05.460Z,12.05
2023-10-01T10:37:38.488Z,11.38
2023-10-01T10:40:18.027Z,11.57
2023-10-01T10:43:05.707Z,12.00
2023-10-01T10:45:43.899Z,11.50
2023-10-01T10:48:12.543Z,10.32
2023-10-01T10:50:47.152Z,10.30
2023-10-01T10:53:20.286Z,13.82
2023-10-01T10:55:55.774Z,11.60
2023-10-01T10:58:26.346Z,12.98
2023-10-01T11:00:54.571Z,11.00
2023-10-01T11:03:43.780Z,11.63
2023-10-01T11:06:48.865Z,10.30
2023-10-01T11:09:24.009Z,14.77
2023-10-01T11:11:52.239Z,12.55
2023-10-01T11:14:20.921Z,11.85
2023-10-01T11:16:50.727Z,13.43
2023-10-01T11:19:22.233Z,12.85
2023-10-01T11:22:00.107Z,11.60
2023-10-01T11:24:33.786Z,11.60
2023-10-01T11:27:19.745Z,11.73
2023-10-01T11:30:14.441Z,11.75
2023-10-01T11:33:15.438Z,11.45
2023-10-01T11:36:00.310Z,10.73
2023-10-01T11:38:33.198Z,10.68
2023-10-01T11:41:08.902Z,10.30
2023-10-01T11:44:01.143Z,11.55
2023-10-01T11:46:58.118Z,10.45
2023-10-01T11:49:35.376Z,12.23
2023-10-01T11:52:22.723Z,11.63
2023-10-01T11:54:55.883Z,11.43
2023-10-01T11:57:24.372Z,11.00
2023-10-01T11:59:59.690Z,10.13
2023-10-01T12:02:27.866Z,10.55
2023-10-01T12:05:01.252Z,9.88
2023-10-01T12:07:41.672Z,11.38
2023-10-01T12:12:39.278Z,10.15
2023-10-01T12:15:25.595Z,11.43
2023-10-01T12:17:52.972Z,11.27
2023-10-01T12:20:31.923Z,11.05
2023-10-01T12:23:14.721Z,9.50
2023-10-01T12:26:14.791Z,12.15
2023-10-01T12:29:01.904Z,11.17
2023-10-01T12:31:29.068Z,11.30
2023-10-01T12:33:59.937Z,11.18
2023-10-01T12:36:33.166Z,9.60
2023-10-01T12:39:13.360Z,11.25
2023-10-01T12:41:54.324Z,12.07
2023-10-01T12:44:27.326Z,9.65
2023-10-01T12:47:08.164Z,11.45
2023-10-01T12:52:09.955Z,10.00
2023-10-01T12:54:37.809Z,11.07
2023-10-01T12:57:19.314Z,10.98
2023-10-01T12:59:47.893Z,10.88
2023-10-01T13:02:28.149Z,10.55
2023-10-01T13:05:21.293Z,10.95
2023-10-01T13:07:59.177Z,11.05
2023-10-01T13:10:35.632Z,13.15
2023-10-01T13:13:08.375Z,11.38
2023-10-01T13:15:38.064Z,11.90
2023-10-01T13:18:12.665Z,11.05
2023-10-01T13:20:47.621Z,10.18
2023-10-01T13:23:14.260Z,11.32
2023-10-01T13:26:06.389Z,9.65
2023-10-01T13:28:51.402Z,11.23
2023-10-01T13:31:29.000Z,13.02
2023-10-01T13:34:15.642Z,11.73
2023-10-01T13:36:51.884Z,11.27
2023-10-01T13:39:37.685Z,10.25
2023-10-01T13:42:26.215Z,10.70
2023-10-01T13:45:31.747Z,10.77
2023-10-01T13:48:24.559Z,10.05
2023-10-01T13:51:23.324Z,10.48
2023-10-01T13:54:08.980Z,9.43
2023-10-01T13:56:54.405Z,11.30
2023-10-01T13:59:39.831Z,10.55
2023-10-01T14:02:25.879Z,11.70
2023-10-01T14:05:11.352Z,10.80
2023-10-01T14:07:56.813Z,10.52
2023-10-01T14:10:23.622Z,10.07
2023-10-01T14:12:57.069Z,9.82
2023-10-01T14:15:25.874Z,11.27
2023-10-01T14:17:56.643Z,9.48
2023-10-01T14:20:44.618Z,9.90
2023-10-01T14:23:28.024Z,11.32
2023-10-01T14:26:11.245Z,10.32
2023-10-01T14:28:39.577Z,9.40
2023-10-01T14:31:09.522Z,10.25
2023-10-01T14:33:40.397Z,9.57
2023-10-01T14:36:12.032Z,9.32
2023-10-01T14:38:38.773Z,10.15
2023-10-01T14:41:09.659Z,9.95
2023-10-01T14:43:42.120Z,10.38
2023-10-01T14:46:14.688Z,9.77
2023-10-01T14:48:46.541Z,10.60
2023-10-01T14:51:14.571Z,10.43
2023-10-01T14:53:41.240Z,10.65
2023-10-01T14:56:07.851Z,10.68
2023-10-01T14:58:35.178Z,10.38
2023-10-01T15:01:02.923Z,11.25
2023-10-01T15:03:36.356Z,9.73
2023-10-01T15:06:08.529Z,10.80
2023-10-01T15:08:37.030Z,10.00
2023-10-01T15:11:14.286Z,10.90
2023-10-01T15:13:50.742Z,11.18
2023-10-01T15:16:26.858Z,11.07
2023-10-01T15:19:06.289Z,10.88
2023-10-01T15:21:33.675Z,10.20
2023-10-01T15:24:00.818Z,10.18
2023-10-01T15:26:31.934Z,10.25
2023-10-01T15:28:59.713Z,9.25
2023-10-01T15:31:34.210Z,10.10
2023-10-01T15:34:05.534Z,9.77
2023-10-01T15:36:47.601Z,12.23
2023-10-01T15:39:38.204Z,11.30
2023-10-01T15:42:13.790Z,11.00
2023-10-01T15:44:50.884Z,10.73
2023-10-01T15:47:27.463Z,11.27
2023-10-01T15:49:58.271Z,10.73
2023-10-01T15:54:58.743Z,10.75
2023-10-01T15:57:26.344Z,10.27
2023-10-01T15:59:54.510Z,13.32
2023-10-01T16:02:21.188Z,11.68
2023-10-01T16:04:48.115Z,12.85
2023-10-01T16:07:18.753Z,12.60
2023-10-01T16:09:46.149Z,10.85
2023-10-01T16:12:15.235Z,12.15
2023-10-01T16:14:58.857Z,11.13
2023-10-01T16:17:32.910Z,16.13
2023-10-01T16:20:00.394Z,13.98
2023-10-01T16:22:29.206Z,12.45
2023-10-01T16:25:03.480Z,12.13
2023-10-01T16:27:35.315Z,13.55
2023-10-01T16:30:20.778Z,15.43
2023-10-01T16:32:51.370Z,19.05
2023-10-01T16:35:24.869Z,19.85
2023-10-01T16:37:54.372Z,21.50
2023-10-01T16:40:26.477Z,22.95
2023-10-01T16:42:55.000Z,16.17
2023-10-01T16:45:29.543Z,13.10
2023-10-01T16:48:03.151Z,12.13
2023-10-01T16:51:00.488Z,12.25
2023-10-01T16:53:33.414Z,11.38
2023-10-01T16:56:02.430Z,11.32
2023-10-01T16:58:34.085Z,11.20
2023-10-01T17:01:02.399Z,11.20
2023-10-01T17:03:36.398Z,12.57
2023-10-01T17:06:08.484Z,14.88
2023-10-01T17:08:42.099Z,46.50
2023-10-01T17:11:09.774Z,20.60
2023-10-01T17:13:37.772Z,24.50
2023-10-01T17:16:25.899Z,13.80
2023-10-01T17:19:01.514Z,17.02
2023-10-01T17:21:38.935Z,17.63
2023-10-01T17:24:30.951Z,18.25
2023-10-01T17:27:02.836Z,18.05
2023-10-01T17:29:30.603Z,14.88
2023-10-01T17:32:07.444Z,12.48
2023-10-01T17:34:36.169Z,12.85
2023-10-01T17:37:12.095Z,13.45
2023-10-01T17:39:39.012Z,13.02
2023-10-01T17:42:07.871Z,12.98
2023-10-01T17:44:43.363Z,12.32
2023-10-01T17:47:12.038Z,12.43
2023-10-01T17:49:49.378Z,13.05
2023-10-01T17:52:32.735Z,12.25
2023-10-01T17:55:01.209Z,12.80
2023-10-01T17:57:30.296Z,13.25
2023-10-01T18:00:00.301Z,12.35
2023-10-01T18:02:29.912Z,11.45
2023-10-01T18:05:18.472Z,12.55
2023-10-01T18:07:53.256Z,11.55
2023-10-01T18:10:41.808Z,11.63
2023-10-01T18:13:23.674Z,12.50
2023-10-01T18:15:56.687Z,10.52
2023-10-01T18:18:27.954Z,12.60
2023-10-01T18:20:59.946Z,11.93
2023-10-01T18:23:27.353Z,12.70
2023-10-01T18:25:56.438Z,12.77
2023-10-01T18:28:27.221Z,11.70
2023-10-01T18:30:56.317Z,13.10
2023-10-01T18:33:27.065Z,11.73
2023-10-01T18:35:57.349Z,11.63
2023-10-01T18:38:31.975Z,12.00
2023-10-01T18:41:00.087Z,13.20
2023-10-01T18:43:27.919Z,12.90
2023-10-01T18:45:57.991Z,12.02
2023-10-01T18:48:32.138Z,12.40
2023-10-01T18:50:58.901Z,12.68
2023-10-01T18:53:26.262Z,11.98
2023-10-01T18:55:56.990Z,11.27
2023-10-01T18:58:24.295Z,12.77
2023-10-01T19:00:56.079Z,11.43
2023-10-01T19:03:24.640Z,12.57
2023-10-01T19:05:59.892Z,12.70
2023-10-01T19:08:31.359Z,11.48
2023-10-01T19:11:04.124Z,13.15
2023-10-01T19:13:32.806Z,11.55
2023-10-01T19:16:00.894Z,12.43
2023-10-01T19:18:31.449Z,12.05
2023-10-01T19:23:33.246Z,12.18
2023-10-01T19:26:01.719Z,13.00
2023-10-01T19:28:29.733Z,12.30
2023-10-01T19:30:58.088Z,11.90
2023-10-01T19:33:25.780Z,25.15
2023-10-01T19:35:53.555Z,17.52
2023-10-01T19:38:21.812Z,17.58
2023-10-01T19:40:50.127Z,12.85
2023-10-01T19:43:27.356Z,11.80
2023-10-01T19:45:54.713Z,13.57
2023-10-01T19:48:22.925Z,12.10
2023-10-01T19:50:51.020Z,12.60
2023-10-01T19:53:23.533Z,14.82
2023-10-01T19:55:58.564Z,16.42
2023-10-01T19:58:45.507Z,18.25
2023-10-01T20:01:19.027Z,14.23
2023-10-01T20:03:47.988Z,13.45
2023-10-01T20:06:24.287Z,13.82
2023-10-01T20:08:58.905Z,14.32
2023-10-01T20:11:34.767Z,13.00
2023-10-01T20:14:04.894Z,12.27
2023-10-01T20:16:39.370Z,13.23
2023-10-01T20:19:08.248Z,32.97
2023-10-01T20:21:35.002Z,25.55
2023-10-01T20:24:02.095Z,30.05
2023-10-01T20:26:33.153Z,19.52
2023-10-01T20:31:28.892Z,14.48
2023-10-01T20:33:55.770Z,14.45
2023-10-01T20:36:28.826Z,14.98
2023-10-01T20:38:58.389Z,13.52
2023-10-01T20:41:25.484Z,13.40
2023-10-01T20:43:57.115Z,12.65
2023-10-01T20:46:24.608Z,13.07
2023-10-01T20:49:00.223Z,12.30
2023-10-01T20:51:30.586Z,13.45
2023-10-01T20:54:04.801Z,14.68
2023-10-01T20:56:33.566Z,13.80
2023-10-01T20:59:01.384Z,13.02
2023-10-01T21:01:39.183Z,13.70
2023-10-01T21:04:13.281Z,13.23
2023-10-01T21:06:42.145Z,25.67
2023-10-01T21:09:19.862Z,18.83
2023-10-01T21:11:48.547Z,16.13
2023-10-01T21:14:34.684Z,13.40
2023-10-01T21:17:10.573Z,14.35
2023-10-01T21:19:43.402Z,13.90
2023-10-01T21:22:10.969Z,14.95
2023-10-01T21:24:42.128Z,14.18
2023-10-01T21:27:14.058Z,13.32
2023-10-01T21:29:47.415Z,13.15
2023-10-01T21:32:18.902Z,14.18
2023-10-01T21:34:46.509Z,17.52
2023-10-01T21:37:20.253Z,14.40
2023-10-01T21:39:49.470Z,14.32
2023-10-01T21:42:33.829Z,13.70
2023-10-01T21:45:20.815Z,15.48
2023-10-01T21:47:49.076Z,14.73
2023-10-01T21:50:16.403Z,15.63
2023-10-01T21:52:43.656Z,15.05
2023-10-01T21:55:17.301Z,15.52
2023-10-01T21:57:43.980Z,16.90
2023-10-01T22:00:36.469Z,13.95
2023-10-01T22:03:07.837Z,14.70
2023-10-01T22:05:36.964Z,15.02
2023-10-01T22:08:25.670Z,17.20
2023-10-01T22:10:53.804Z,15.23
2023-10-01T22:13:21.434Z,14.27
2023-10-01T22:15:55.690Z,15.02
2023-10-01T22:18:27.735Z,15.27
2023-10-01T22:20:57.820Z,15.82
2023-10-01T22:23:30.714Z,16.00
2023-10-01T22:26:00.938Z,15.35
2023-10-01T22:28:35.112Z,15.65
2023-10-01T22:31:04.762Z,15.88
2023-10-01T22:33:36.952Z,16.63
2023-10-01T22:36:10.988Z,16.05
2023-10-01T22:38:38.881Z,16.33
2023-10-01T22:41:09.020Z,17.42
2023-10-01T22:43:37.960Z,16.58
2023-10-01T22:46:11.027Z,16.70
2023-10-01T22:48:49.438Z,15.82
2023-10-01T22:51:22.528Z,15.05
2023-10-01T22:53:50.086Z,15.80
2023-10-01T22:56:17.628Z,15.68
2023-10-01T22:58:44.814Z,16.30
2023-10-01T23:01:19.562Z,16.13
2023-10-01T23:03:46.796Z,15.85
2023-10-01T23:06:14.806Z,16.77
2023-10-01T23:08:51.271Z,15.85
2023-10-01T23:11:24.464Z,16.90
2023-10-01T23:13:55.405Z,16.05
2023-10-01T23:16:22.809Z,14.43
2023-10-01T23:18:50.631Z,15.40
2023-10-01T23:21:20.477Z,15.68
2023-10-01T23:23:47.175Z,15.87
2023-10-01T23:26:26.438Z,15.85
2023-10-01T23:29:16.538Z,15.13
2023-10-01T23:31:51.460Z,14.27
2023-10-01T23:34:23.618Z,15.82
2023-10-01T23:36:51.343Z,14.70
2023-10-01T23:39:27.952Z,15.02
2023-10-01T23:41:55.118Z,13.85
2023-10-01T23:44:28.115Z,14.93
2023-10-01T23:46:56.190Z,14.85
2023-10-01T23:49:27.444Z,14.38
2023-10-01T23:51:55.955Z,16.45
2023-10-01T23:54:27.263Z,14.95
2023-10-01T23:56:54.136Z,15.55
2023-10-01T23:59:27.389Z,15.13
